createdAt,value
2022-11-16T00:03:52.794Z,36.95
2022-11-16T00:09:15.982Z,36.75
2022-11-16T00:19:21.095Z,35.05
2022-11-16T00:24:23.928Z,35.08
2022-11-16T00:29:27.258Z,31.65
2022-11-16T00:34:29.930Z,35.22
2022-11-16T00:39:32.763Z,34.65
2022-11-16T00:44:35.333Z,33.85
2022-11-16T00:49:38.745Z,34.22
2022-11-16T00:54:41.490Z,32.22
2022-11-16T00:59:44.139Z,33.25
2022-11-16T01:04:46.762Z,35.75
2022-11-16T01:09:49.448Z,31.45
2022-11-16T01:14:53.104Z,34.85
2022-11-16T01:19:55.908Z,46.97
2022-11-16T01:24:58.496Z,34.95
2022-11-16T01:30:01.220Z,34.70
2022-11-16T01:35:04.463Z,33.63
2022-11-16T01:40:10.321Z,35.17
2022-11-16T01:45:30.576Z,32.30
2022-11-16T01:50:35.778Z,32.78
2022-11-16T01:55:39.091Z,32.65
2022-11-16T02:01:10.890Z,33.40
2022-11-16T02:06:30.850Z,32.72
2022-11-16T02:12:11.499Z,34.33
2022-11-16T02:17:20.474Z,38.72
2022-11-16T02:22:34.284Z,35.38
2022-11-16T02:27:36.979Z,33.45
2022-11-16T02:32:50.082Z,40.58
2022-11-16T02:37:58.202Z,41.35
2022-11-16T02:43:07.028Z,39.00
2022-11-16T02:48:17.066Z,34.25
2022-11-16T02:53:23.971Z,36.45
2022-11-16T02:58:28.137Z,38.65
2022-11-16T03:03:43.475Z,37.50
2022-11-16T03:08:50.082Z,37.88
2022-11-16T03:13:55.684Z,39.20
2022-11-16T03:19:00.293Z,42.25
2022-11-16T03:24:04.269Z,35.28
2022-11-16T03:29:21.780Z,39.83
2022-11-16T03:34:29.228Z,42.80
2022-11-16T03:39:34.267Z,44.67
2022-11-16T03:44:38.967Z,42.55
2022-11-16T03:49:45.910Z,44.45
2022-11-16T03:54:50.562Z,44.83
2022-11-16T03:59:54.119Z,44.53
2022-11-16T04:05:15.222Z,49.15
2022-11-16T04:10:37.457Z,57.92
2022-11-16T04:15:58.777Z,53.78
2022-11-16T04:21:20.170Z,52.38
2022-11-16T04:26:42.997Z,48.50
2022-11-16T04:32:04.099Z,54.20
2022-11-16T04:37:25.583Z,53.58
2022-11-16T04:42:28.373Z,54.03
2022-11-16T04:47:31.127Z,56.22
2022-11-16T04:52:33.926Z,60.40
2022-11-16T04:57:37.100Z,68.05
2022-11-16T05:02:40.606Z,57.10
2022-11-16T05:07:43.667Z,66.40
2022-11-16T05:12:52.209Z,66.28
2022-11-16T05:17:55.881Z,59.75
2022-11-16T05:23:01.001Z,65.05
2022-11-16T05:28:07.425Z,60.45
2022-11-16T05:33:16.608Z,60.78
2022-11-16T05:38:21.686Z,66.70
2022-11-16T05:43:29.965Z,58.58
2022-11-16T05:48:52.023Z,57.73
2022-11-16T05:53:54.948Z,59.15
2022-11-16T05:58:59.361Z,57.38
2022-11-16T06:04:02.493Z,58.70
2022-11-16T06:09:07.226Z,51.05
2022-11-16T06:14:11.313Z,56.10
2022-11-16T06:19:14.873Z,60.03
2022-11-16T06:24:17.434Z,57.80
2022-11-16T06:29:20.579Z,60.15
2022-11-16T06:34:23.240Z,57.47
2022-11-16T06:39:25.928Z,59.88
2022-11-16T06:44:28.618Z,63.25
2022-11-16T06:49:36.057Z,57.92
2022-11-16T06:54:44.935Z,59.45
2022-11-16T06:59:48.301Z,57.70
2022-11-16T07:04:50.953Z,56.58
2022-11-16T07:09:54.395Z,60.30
2022-11-16T07:14:57.243Z,55.80
2022-11-16T07:20:01.431Z,63.75
2022-11-16T07:25:05.508Z,60.95
2022-11-16T07:30:08.388Z,61.67
2022-11-16T07:35:29.876Z,58.00
2022-11-16T07:40:32.562Z,56.90
2022-11-16T07:45:35.500Z,61.92
2022-11-16T07:50:42.916Z,59.97
2022-11-16T07:55:51.621Z,53.47
2022-11-16T08:00:54.213Z,58.70
2022-11-16T08:06:00.808Z,56.67
2022-11-16T08:11:05.038Z,55.47
2022-11-16T08:16:10.929Z,51.75
2022-11-16T08:21:15.511Z,57.75
2022-11-16T08:26:20.590Z,52.03
2022-11-16T08:31:29.118Z,51.15
2022-11-16T08:36:44.893Z,45.25
2022-11-16T08:41:50.602Z,44.00
2022-11-16T08:46:53.367Z,41.22
2022-11-16T08:52:07.513Z,36.40
2022-11-16T08:57:11.290Z,38.47
2022-11-16T09:02:16.932Z,38.47
2022-11-16T09:07:20.589Z,31.88
2022-11-16T09:12:23.700Z,35.20
2022-11-16T09:17:26.633Z,28.65
2022-11-16T09:22:29.303Z,44.05
2022-11-16T09:27:31.825Z,84.72
2022-11-16T09:32:34.564Z,57.35
2022-11-16T09:52:21.321Z,34.63
2022-11-16T09:57:27.425Z,33.95
2022-11-16T10:02:33.179Z,34.92
2022-11-16T10:07:41.796Z,36.10
2022-11-16T10:12:47.404Z,30.67
2022-11-16T10:17:59.470Z,32.75
2022-11-16T10:23:20.572Z,30.70
2022-11-16T10:28:29.672Z,34.08
2022-11-16T10:33:36.608Z,34.17
2022-11-16T10:38:39.710Z,36.35
2022-11-16T10:43:43.337Z,34.63
2022-11-16T10:48:48.760Z,36.50
2022-11-16T10:53:53.357Z,40.72
2022-11-16T10:59:00.294Z,37.03
2022-11-16T11:04:22.371Z,35.58
2022-11-16T11:09:24.946Z,34.92
2022-11-16T11:14:27.479Z,36.50
2022-11-16T11:19:30.018Z,36.03
2022-11-16T11:24:48.003Z,58.95
2022-11-16T11:29:53.285Z,36.55
2022-11-16T11:34:56.619Z,33.80
2022-11-16T11:40:18.786Z,32.28
2022-11-16T11:45:23.542Z,30.40
2022-11-16T11:50:32.409Z,37.38
2022-11-16T11:55:35.238Z,34.65
2022-11-16T12:01:19.548Z,31.63
2022-11-16T12:06:52.934Z,30.80
2022-11-16T12:12:01.870Z,30.60
2022-11-16T12:17:04.480Z,31.13
2022-11-16T12:22:09.963Z,30.13
2022-11-16T12:27:44.958Z,32.30
2022-11-16T12:32:47.666Z,30.00
2022-11-16T12:37:55.816Z,28.60
2022-11-16T12:43:04.527Z,30.80
2022-11-16T12:48:07.205Z,27.83
2022-11-16T12:53:15.684Z,27.02
2022-11-16T12:58:18.310Z,25.33
2022-11-16T13:03:28.794Z,23.20
2022-11-16T13:08:40.518Z,25.33
2022-11-16T13:13:49.583Z,21.95
2022-11-16T13:18:55.245Z,23.77
2022-11-16T13:24:04.034Z,22.33
2022-11-16T13:29:09.637Z,20.85
2022-11-16T13:34:21.980Z,27.58
2022-11-16T13:39:43.165Z,22.25
2022-11-16T13:44:51.438Z,22.35
2022-11-16T13:50:01.836Z,20.42
2022-11-16T13:55:13.516Z,23.83
2022-11-16T14:00:42.582Z,20.80
2022-11-16T14:05:49.057Z,22.65
2022-11-16T14:10:51.899Z,19.73
2022-11-16T14:16:13.677Z,20.83
2022-11-16T14:21:19.547Z,19.33
2022-11-16T14:26:22.204Z,22.42
2022-11-16T14:31:25.116Z,20.50
2022-11-16T14:36:35.438Z,20.60
2022-11-16T14:41:38.106Z,22.83
2022-11-16T14:46:42.012Z,17.40
2022-11-16T14:51:47.600Z,17.70
2022-11-16T14:56:57.039Z,17.73
2022-11-16T15:02:02.903Z,17.27
2022-11-16T15:07:05.902Z,15.30
2022-11-16T15:12:35.261Z,13.55
2022-11-16T15:17:51.859Z,30.98
2022-11-16T15:22:57.237Z,13.43
2022-11-16T15:28:01.624Z,14.30
2022-11-16T15:33:09.600Z,11.25
2022-11-16T15:38:15.617Z,14.18
2022-11-16T15:43:19.620Z,12.40
2022-11-16T15:48:23.797Z,14.50
2022-11-16T15:53:40.211Z,13.52
2022-11-16T15:58:43.077Z,15.05
2022-11-16T16:04:05.970Z,14.07
2022-11-16T16:09:11.787Z,14.95
2022-11-16T16:14:28.500Z,17.58
2022-11-16T16:19:37.029Z,15.82
2022-11-16T16:24:45.510Z,14.88
2022-11-16T16:29:49.864Z,13.98
2022-11-16T16:34:53.121Z,16.25
2022-11-16T16:39:55.662Z,14.10
2022-11-16T16:44:59.505Z,18.17
2022-11-16T16:50:02.153Z,18.63
2022-11-16T16:55:05.121Z,16.15
2022-11-16T17:00:08.105Z,14.02
2022-11-16T17:05:10.807Z,15.35
2022-11-16T17:10:13.491Z,15.52
2022-11-16T17:15:19.357Z,13.77
2022-11-16T17:20:22.280Z,12.88
2022-11-16T17:25:24.998Z,11.07
2022-11-16T17:30:28.950Z,10.68
2022-11-16T17:35:32.433Z,12.20
2022-11-16T17:40:35.135Z,10.55
2022-11-16T17:45:37.836Z,13.65
2022-11-16T17:50:47.010Z,11.20
2022-11-16T17:55:49.692Z,11.35
2022-11-16T18:00:52.499Z,9.88
2022-11-16T18:06:02.067Z,10.82
2022-11-16T18:11:05.532Z,9.65
2022-11-16T18:16:08.278Z,8.18
2022-11-16T18:21:15.860Z,9.05
2022-11-16T18:26:23.637Z,8.50
2022-11-16T18:31:26.498Z,8.60
2022-11-16T18:36:29.218Z,8.13
2022-11-16T18:41:32.020Z,8.40
2022-11-16T18:46:34.812Z,8.15
2022-11-16T18:51:37.453Z,8.02
2022-11-16T18:56:40.149Z,8.80
2022-11-16T19:01:42.895Z,7.72
2022-11-16T19:06:45.555Z,9.85
2022-11-16T19:11:48.454Z,26.33
2022-11-16T19:16:56.692Z,8.13
2022-11-16T19:21:59.795Z,6.68
2022-11-16T19:27:02.533Z,8.18
2022-11-16T19:32:05.336Z,7.93
2022-11-16T19:37:08.337Z,6.65
2022-11-16T19:42:11.021Z,10.55
2022-11-16T19:47:13.768Z,9.63
2022-11-16T19:52:16.697Z,7.97
2022-11-16T19:57:20.903Z,7.38
2022-11-16T20:02:23.592Z,8.88
2022-11-16T20:07:26.312Z,8.65
2022-11-16T20:12:29.396Z,8.52
2022-11-16T20:17:32.041Z,8.55
2022-11-16T20:22:34.748Z,8.85
2022-11-16T20:27:37.428Z,7.93
2022-11-16T20:32:40.315Z,8.38
2022-11-16T20:37:43.703Z,10.52
2022-11-16T20:42:47.057Z,8.93
2022-11-16T20:47:49.674Z,9.38
2022-11-16T20:52:52.963Z,9.65
2022-11-16T20:57:55.735Z,9.77
2022-11-16T21:02:58.423Z,9.00
2022-11-16T21:08:01.096Z,21.83
2022-11-16T21:13:26.355Z,10.15
2022-11-16T21:18:30.876Z,8.90
2022-11-16T21:23:34.694Z,8.50
2022-11-16T21:28:38.080Z,8.40
2022-11-16T21:33:40.922Z,9.30
2022-11-16T21:38:43.788Z,11.07
2022-11-16T21:43:46.378Z,8.93
2022-11-16T21:48:51.337Z,9.57
2022-11-16T21:53:54.560Z,9.63
2022-11-16T21:58:57.271Z,9.98
2022-11-16T22:04:18.814Z,8.02
2022-11-16T22:09:21.841Z,8.32
2022-11-16T22:14:24.571Z,8.98
2022-11-16T22:19:27.233Z,9.30
2022-11-16T22:24:29.951Z,10.32
2022-11-16T22:29:32.796Z,8.52
2022-11-16T22:34:35.869Z,9.32
2022-11-16T22:39:41.335Z,10.60
2022-11-16T22:44:44.400Z,11.13
2022-11-16T22:49:47.125Z,15.50
2022-11-16T22:54:49.966Z,10.65
2022-11-16T22:59:53.649Z,9.40
2022-11-16T23:04:56.404Z,9.98
2022-11-16T23:09:59.025Z,9.90
2022-11-16T23:15:20.131Z,9.25
2022-11-16T23:20:42.001Z,12.13
2022-11-16T23:26:03.575Z,12.27
2022-11-16T23:31:06.279Z,9.18
2022-11-16T23:36:09.196Z,9.75
2022-11-16T23:41:30.596Z,10.00
2022-11-16T23:46:33.316Z,9.35
2022-11-16T23:51:36.255Z,10.82
2022-11-16T23:56:38.818Z,9.60
